MUC | München Airways

 METAR UND TAF INFORMATION

METAR FOR VTBS
ADDS - METARS form results

(1609 UTC 24 March 2019)
Data provider http://aviationweather.gov/metar/data/
 
METAR text: VTBS 241600Z 13008KT 080V170 8000 FEW030 28/24 Q1010 NOSIG
Conditions at: VTBS (CHON BURI/SATTAH, TH) observed 1600 UTC 24 March 2019
Temperature: 28.0°C (82°F)
Dewpoint: 24.0°C (75°F) [RH = 79%]
Pressure (altimeter): 29.82 inches Hg (1010.0 mb)
Winds: from the SE (130 degrees) at 9 MPH (8 knots; 4.1 m/s)
Visibility: 5 miles ( 8 km)
Ceiling: at least 12,000 feet AGL
Clouds: few clouds at 3000 feet AGL
Weather: no significant weather observed at this time

METAR text: VTBS 241530Z 11007KT 020V190 8000 FEW030 28/24 Q1010 NOSIG
Conditions at: VTBS (CHON BURI/SATTAH, TH) observed 1530 UTC 24 March 2019
Temperature: 28.0°C (82°F)
Dewpoint: 24.0°C (75°F) [RH = 79%]
Pressure (altimeter): 29.82 inches Hg (1010.0 mb)
Winds: from the ESE (110 degrees) at 8 MPH (7 knots; 3.6 m/s)
Visibility: 5 miles ( 8 km)
Ceiling: at least 12,000 feet AGL
Clouds: few clouds at 3000 feet AGL
Weather: no significant weather observed at this time

Forecast for: VTBS (CHON BURI/SATTAH, TH)
Text: TAF VTBS 241100Z 2412/2518 20008KT 9999 FEW020
Forecast period: 1200 UTC 24 March 2019 to 1800 UTC 25 March 2019
Forecast type: FROM: standard forecast or significant change
Winds: from the SSW (200 degrees) at 9 MPH (8 knots; 4.1 m/s)
Visibility: 6 or more miles 10+ km)
Ceiling: at least 12,000 feet AGL
Clouds: few clouds at 2000 feet AGL
Weather: no significant weather forecast for this period
Text: TEMPO 2422/2502 14010KT 6000 -TSRA FEW018CB SCT030
Forecast period: 2200 UTC 24 March 2019 to 0200 UTC 25 March 2019
Forecast type: TEMPORARY: The following changes expected for less than half the time period
Winds: from the SE (140 degrees) at 12 MPH (10 knots; 5.1 m/s)
Visibility: 4 miles (6 km)
Ceiling: at least 12,000 feet AGL
Clouds: few clouds at 1800 feet AGL
scattered clouds at 3000 feet AGL
Weather: -TSRA  (light rain associated with thunderstorm(s))

 FLUGHAFENKARTE

 RUNWAY INFORMATION
Runway 01L Runway length 12139 ft Runway width 197 ft
Runway elevation 0 ft Runway displaced threshold 0 ft Runway heading 14
Runway 19R Runway length 12139 ft Runway width 197 ft
Runway elevation 0 ft Runway displaced threshold 0 ft Runway heading 194
Runway 01R Runway length 13123 ft Runway width 197 ft
Runway elevation 0 ft Runway displaced threshold 0 ft Runway heading 14
Runway 19L Runway length 13123 ft Runway width 197 ft
Runway elevation 0 ft Runway displaced threshold 0 ft Runway heading 194

 AIRPORT FREQUENCIES
Type ATIS Name Frequency 127.8 MHZ
Type TOWER (01R Name Frequency 118.2 MHZ
Type TOWER (01L Name Frequency 119 MHZ
Type GROUND (EA Name Frequency 121.65 MHZ
Type GROUND (MA Name Frequency 121.75 MHZ
Type GROUND (WE Name Frequency 121.95 MHZ

 AIRPORT NEAR NAVIGATION AIDS
Type VOR-DME Name Suvarnabhumi Intl Frequency 111400 KHZ